sensor_id;sensor_type;location;lat;lon;timestamp;P1;durP1;ratioP1;P2;durP2;ratioP2
14611;SDS011;7392;52.078;11.650;2022-10-03T00:05:52;3.67;;;1.10;;
14611;SDS011;7392;52.078;11.650;2022-10-03T00:08:38;4.67;;;1.50;;
14611;SDS011;7392;52.078;11.650;2022-10-03T00:11:26;2.27;;;1.27;;
14611;SDS011;7392;52.078;11.650;2022-10-03T00:14:04;2.53;;;1.10;;
14611;SDS011;7392;52.078;11.650;2022-10-03T00:16:41;3.30;;;1.23;;
14611;SDS011;7392;52.078;11.650;2022-10-03T00:19:17;3.30;;;1.10;;
14611;SDS011;7392;52.078;11.650;2022-10-03T00:21:55;3.70;;;1.23;;
14611;SDS011;7392;52.078;11.650;2022-10-03T00:24:39;4.53;;;1.53;;
14611;SDS011;7392;52.078;11.650;2022-10-03T00:27:15;7.17;;;2.00;;
14611;SDS011;7392;52.078;11.650;2022-10-03T00:29:55;5.93;;;1.67;;
14611;SDS011;7392;52.078;11.650;2022-10-03T00:32:47;7.10;;;2.07;;
14611;SDS011;7392;52.078;11.650;2022-10-03T00:35:41;4.87;;;1.70;;
14611;SDS011;7392;52.078;11.650;2022-10-03T00:38:23;4.43;;;1.70;;
14611;SDS011;7392;52.078;11.650;2022-10-03T00:41:18;4.77;;;1.43;;
14611;SDS011;7392;52.078;11.650;2022-10-03T00:47:32;5.07;;;1.37;;
14611;SDS011;7392;52.078;11.650;2022-10-03T00:50:26;12.30;;;1.93;;
14611;SDS011;7392;52.078;11.650;2022-10-03T00:53:22;4.13;;;1.50;;
14611;SDS011;7392;52.078;11.650;2022-10-03T00:56:25;5.60;;;1.60;;
14611;SDS011;7392;52.078;11.650;2022-10-03T00:59:19;4.63;;;1.63;;
14611;SDS011;7392;52.078;11.650;2022-10-03T01:02:04;5.80;;;1.93;;
14611;SDS011;7392;52.078;11.650;2022-10-03T01:04:53;6.70;;;2.00;;
14611;SDS011;7392;52.078;11.650;2022-10-03T01:07:30;10.27;;;2.37;;
14611;SDS011;7392;52.078;11.650;2022-10-03T01:10:25;5.73;;;2.00;;
14611;SDS011;7392;52.078;11.650;2022-10-03T01:13:07;6.60;;;2.10;;
14611;SDS011;7392;52.078;11.650;2022-10-03T01:15:49;4.60;;;1.60;;
14611;SDS011;7392;52.078;11.650;2022-10-03T01:18:24;5.63;;;1.80;;
14611;SDS011;7392;52.078;11.650;2022-10-03T01:21:05;4.93;;;1.83;;
14611;SDS011;7392;52.078;11.650;2022-10-03T01:26:50;4.80;;;2.00;;
14611;SDS011;7392;52.078;11.650;2022-10-03T01:29:23;6.03;;;2.23;;
14611;SDS011;7392;52.078;11.650;2022-10-03T01:32:22;4.37;;;1.70;;
14611;SDS011;7392;52.078;11.650;2022-10-03T01:34:59;4.23;;;1.50;;
14611;SDS011;7392;52.078;11.650;2022-10-03T01:37:38;3.70;;;1.60;;
14611;SDS011;7392;52.078;11.650;2022-10-03T01:40:16;5.03;;;1.77;;
14611;SDS011;7392;52.078;11.650;2022-10-03T01:42:55;6.97;;;1.70;;
14611;SDS011;7392;52.078;11.650;2022-10-03T01:45:34;6.43;;;2.20;;
14611;SDS011;7392;52.078;11.650;2022-10-03T01:48:16;6.20;;;1.87;;
14611;SDS011;7392;52.078;11.650;2022-10-03T01:50:50;2.23;;;1.27;;
14611;SDS011;7392;52.078;11.650;2022-10-03T01:53:28;3.40;;;1.40;;
14611;SDS011;7392;52.078;11.650;2022-10-03T01:56:07;4.30;;;1.70;;
14611;SDS011;7392;52.078;11.650;2022-10-03T01:58:45;5.57;;;1.70;;
14611;SDS011;7392;52.078;11.650;2022-10-03T02:01:25;5.30;;;1.70;;
14611;SDS011;7392;52.078;11.650;2022-10-03T02:04:02;5.03;;;1.63;;
14611;SDS011;7392;52.078;11.650;2022-10-03T02:06:41;4.07;;;1.60;;
14611;SDS011;7392;52.078;11.650;2022-10-03T02:09:18;5.77;;;1.60;;
14611;SDS011;7392;52.078;11.650;2022-10-03T02:14:56;6.50;;;1.50;;
14611;SDS011;7392;52.078;11.650;2022-10-03T02:17:29;4.10;;;1.87;;
14611;SDS011;7392;52.078;11.650;2022-10-03T02:20:17;5.33;;;1.87;;
14611;SDS011;7392;52.078;11.650;2022-10-03T02:22:51;4.43;;;1.40;;
14611;SDS011;7392;52.078;11.650;2022-10-03T02:25:26;4.70;;;1.60;;
14611;SDS011;7392;52.078;11.650;2022-10-03T02:28:12;6.00;;;1.40;;
14611;SDS011;7392;52.078;11.650;2022-10-03T02:31:21;5.60;;;1.33;;
14611;SDS011;7392;52.078;11.650;2022-10-03T02:34:17;9.90;;;1.83;;
14611;SDS011;7392;52.078;11.650;2022-10-03T02:43:18;8.90;;;2.30;;
14611;SDS011;7392;52.078;11.650;2022-10-03T02:46:13;5.73;;;1.73;;
14611;SDS011;7392;52.078;11.650;2022-10-03T02:52:18;9.00;;;2.70;;
14611;SDS011;7392;52.078;11.650;2022-10-03T02:55:09;5.03;;;1.93;;
14611;SDS011;7392;52.078;11.650;2022-10-03T02:57:58;5.27;;;2.17;;
14611;SDS011;7392;52.078;11.650;2022-10-03T03:00:54;6.07;;;1.80;;
14611;SDS011;7392;52.078;11.650;2022-10-03T03:03:48;7.23;;;1.87;;
14611;SDS011;7392;52.078;11.650;2022-10-03T03:06:49;6.77;;;2.10;;
14611;SDS011;7392;52.078;11.650;2022-10-03T03:09:35;5.27;;;1.60;;
14611;SDS011;7392;52.078;11.650;2022-10-03T03:12:39;8.77;;;2.00;;
14611;SDS011;7392;52.078;11.650;2022-10-03T03:18:32;3.97;;;1.63;;
14611;SDS011;7392;52.078;11.650;2022-10-03T03:21:14;3.57;;;1.67;;
14611;SDS011;7392;52.078;11.650;2022-10-03T03:29:43;7.77;;;2.40;;
14611;SDS011;7392;52.078;11.650;2022-10-03T03:32:23;4.80;;;1.53;;
14611;SDS011;7392;52.078;11.650;2022-10-03T03:35:04;5.10;;;2.10;;
14611;SDS011;7392;52.078;11.650;2022-10-03T03:37:43;4.70;;;1.83;;
14611;SDS011;7392;52.078;11.650;2022-10-03T03:40:29;6.27;;;2.30;;
14611;SDS011;7392;52.078;11.650;2022-10-03T03:43:36;4.90;;;1.90;;
14611;SDS011;7392;52.078;11.650;2022-10-03T03:46:30;6.30;;;2.00;;
14611;SDS011;7392;52.078;11.650;2022-10-03T03:49:26;5.50;;;1.83;;
14611;SDS011;7392;52.078;11.650;2022-10-03T03:52:16;6.80;;;1.97;;
14611;SDS011;7392;52.078;11.650;2022-10-03T03:55:03;4.63;;;1.70;;
14611;SDS011;7392;52.078;11.650;2022-10-03T03:57:50;4.27;;;1.50;;
14611;SDS011;7392;52.078;11.650;2022-10-03T04:00:35;4.63;;;1.87;;
14611;SDS011;7392;52.078;11.650;2022-10-03T04:03:23;6.20;;;1.80;;
14611;SDS011;7392;52.078;11.650;2022-10-03T04:06:09;5.73;;;2.00;;
14611;SDS011;7392;52.078;11.650;2022-10-03T04:09:01;3.67;;;1.67;;
14611;SDS011;7392;52.078;11.650;2022-10-03T04:11:58;7.53;;;1.93;;
14611;SDS011;7392;52.078;11.650;2022-10-03T04:14:39;5.93;;;2.10;;
14611;SDS011;7392;52.078;11.650;2022-10-03T04:17:35;5.00;;;1.80;;
14611;SDS011;7392;52.078;11.650;2022-10-03T04:20:41;5.43;;;1.53;;
14611;SDS011;7392;52.078;11.650;2022-10-03T04:23:27;5.97;;;1.90;;
14611;SDS011;7392;52.078;11.650;2022-10-03T04:26:09;6.87;;;1.83;;
14611;SDS011;7392;52.078;11.650;2022-10-03T04:28:59;4.77;;;1.77;;
14611;SDS011;7392;52.078;11.650;2022-10-03T04:31:46;6.00;;;1.70;;
14611;SDS011;7392;52.078;11.650;2022-10-03T04:34:25;4.33;;;1.77;;
14611;SDS011;7392;52.078;11.650;2022-10-03T04:37:10;4.90;;;1.60;;
14611;SDS011;7392;52.078;11.650;2022-10-03T04:39:47;4.67;;;1.60;;
14611;SDS011;7392;52.078;11.650;2022-10-03T04:42:23;3.27;;;1.60;;
14611;SDS011;7392;52.078;11.650;2022-10-03T04:48:04;3.80;;;1.63;;
14611;SDS011;7392;52.078;11.650;2022-10-03T04:50:43;4.83;;;1.53;;
14611;SDS011;7392;52.078;11.650;2022-10-03T04:53:28;3.83;;;1.40;;
14611;SDS011;7392;52.078;11.650;2022-10-03T04:56:15;5.77;;;1.73;;
14611;SDS011;7392;52.078;11.650;2022-10-03T04:59:00;3.00;;;1.20;;
14611;SDS011;7392;52.078;11.650;2022-10-03T05:01:38;3.00;;;1.10;;
14611;SDS011;7392;52.078;11.650;2022-10-03T05:04:14;4.57;;;1.40;;
14611;SDS011;7392;52.078;11.650;2022-10-03T05:06:55;3.43;;;1.13;;
14611;SDS011;7392;52.078;11.650;2022-10-03T05:09:35;7.60;;;1.77;;
14611;SDS011;7392;52.078;11.650;2022-10-03T05:12:13;5.10;;;1.50;;
14611;SDS011;7392;52.078;11.650;2022-10-03T05:14:48;4.80;;;1.70;;
14611;SDS011;7392;52.078;11.650;2022-10-03T05:17:27;3.87;;;1.50;;
14611;SDS011;7392;52.078;11.650;2022-10-03T05:20:19;6.30;;;2.17;;
14611;SDS011;7392;52.078;11.650;2022-10-03T05:22:57;6.47;;;1.87;;
14611;SDS011;7392;52.078;11.650;2022-10-03T05:25:45;6.23;;;2.00;;
14611;SDS011;7392;52.078;11.650;2022-10-03T05:28:44;4.77;;;1.73;;
14611;SDS011;7392;52.078;11.650;2022-10-03T05:31:27;5.60;;;1.60;;
14611;SDS011;7392;52.078;11.650;2022-10-03T05:34:09;4.40;;;1.70;;
14611;SDS011;7392;52.078;11.650;2022-10-03T05:36:51;4.80;;;1.67;;
14611;SDS011;7392;52.078;11.650;2022-10-03T05:39:28;4.33;;;2.03;;
14611;SDS011;7392;52.078;11.650;2022-10-03T05:42:17;5.47;;;2.40;;
14611;SDS011;7392;52.078;11.650;2022-10-03T05:45:02;5.70;;;2.27;;
14611;SDS011;7392;52.078;11.650;2022-10-03T05:47:35;6.07;;;2.20;;
14611;SDS011;7392;52.078;11.650;2022-10-03T05:53:07;9.07;;;2.97;;
14611;SDS011;7392;52.078;11.650;2022-10-03T05:55:44;6.13;;;2.20;;
14611;SDS011;7392;52.078;11.650;2022-10-03T05:58:35;6.77;;;2.70;;
14611;SDS011;7392;52.078;11.650;2022-10-03T06:04:44;7.40;;;2.70;;
14611;SDS011;7392;52.078;11.650;2022-10-03T06:07:25;7.63;;;2.73;;
14611;SDS011;7392;52.078;11.650;2022-10-03T06:13:07;5.57;;;2.50;;
14611;SDS011;7392;52.078;11.650;2022-10-03T06:15:49;4.17;;;2.23;;
14611;SDS011;7392;52.078;11.650;2022-10-03T06:18:48;7.90;;;2.50;;
14611;SDS011;7392;52.078;11.650;2022-10-03T06:34:37;5.97;;;2.43;;
14611;SDS011;7392;52.078;11.650;2022-10-03T06:37:46;6.67;;;2.67;;
14611;SDS011;7392;52.078;11.650;2022-10-03T06:44:11;4.47;;;2.23;;
14611;SDS011;7392;52.078;11.650;2022-10-03T06:47:17;10.17;;;2.70;;
14611;SDS011;7392;52.078;11.650;2022-10-03T06:53:20;7.83;;;2.43;;
14611;SDS011;7392;52.078;11.650;2022-10-03T06:56:11;7.47;;;2.60;;
14611;SDS011;7392;52.078;11.650;2022-10-03T06:59:24;7.73;;;2.23;;
14611;SDS011;7392;52.078;11.650;2022-10-03T07:02:24;7.63;;;2.40;;
14611;SDS011;7392;52.078;11.650;2022-10-03T07:05:12;8.20;;;2.73;;
14611;SDS011;7392;52.078;11.650;2022-10-03T07:08:16;9.07;;;2.70;;
14611;SDS011;7392;52.078;11.650;2022-10-03T07:11:06;5.97;;;2.00;;
14611;SDS011;7392;52.078;11.650;2022-10-03T07:20:14;8.17;;;2.60;;
14611;SDS011;7392;52.078;11.650;2022-10-03T07:26:38;7.63;;;2.37;;
14611;SDS011;7392;52.078;11.650;2022-10-03T07:29:26;5.50;;;2.33;;
14611;SDS011;7392;52.078;11.650;2022-10-03T07:32:17;7.67;;;2.50;;
14611;SDS011;7392;52.078;11.650;2022-10-03T07:38:30;9.27;;;2.20;;
14611;SDS011;7392;52.078;11.650;2022-10-03T07:41:27;7.60;;;2.00;;
14611;SDS011;7392;52.078;11.650;2022-10-03T07:50:35;6.90;;;2.00;;
14611;SDS011;7392;52.078;11.650;2022-10-03T07:53:32;6.90;;;2.13;;
14611;SDS011;7392;52.078;11.650;2022-10-03T07:56:24;9.63;;;2.87;;
14611;SDS011;7392;52.078;11.650;2022-10-03T08:02:39;6.50;;;2.30;;
14611;SDS011;7392;52.078;11.650;2022-10-03T08:05:23;8.07;;;2.40;;
14611;SDS011;7392;52.078;11.650;2022-10-03T08:08:14;6.43;;;2.33;;
14611;SDS011;7392;52.078;11.650;2022-10-03T08:11:13;5.67;;;2.27;;
14611;SDS011;7392;52.078;11.650;2022-10-03T08:14:03;10.13;;;2.37;;
14611;SDS011;7392;52.078;11.650;2022-10-03T08:16:59;8.10;;;2.27;;
14611;SDS011;7392;52.078;11.650;2022-10-03T08:19:52;9.37;;;2.57;;
14611;SDS011;7392;52.078;11.650;2022-10-03T08:22:41;5.33;;;2.20;;
14611;SDS011;7392;52.078;11.650;2022-10-03T08:25:25;6.03;;;2.07;;
14611;SDS011;7392;52.078;11.650;2022-10-03T08:27:59;6.43;;;1.93;;
14611;SDS011;7392;52.078;11.650;2022-10-03T08:30:56;7.47;;;2.03;;
14611;SDS011;7392;52.078;11.650;2022-10-03T08:33:48;7.77;;;2.57;;
14611;SDS011;7392;52.078;11.650;2022-10-03T08:36:34;10.87;;;2.63;;
14611;SDS011;7392;52.078;11.650;2022-10-03T08:39:20;5.53;;;2.17;;
14611;SDS011;7392;52.078;11.650;2022-10-03T08:42:11;8.20;;;2.40;;
14611;SDS011;7392;52.078;11.650;2022-10-03T08:45:19;9.67;;;2.57;;
14611;SDS011;7392;52.078;11.650;2022-10-03T08:48:32;8.50;;;2.50;;
14611;SDS011;7392;52.078;11.650;2022-10-03T08:54:24;5.80;;;1.90;;
14611;SDS011;7392;52.078;11.650;2022-10-03T08:57:19;7.30;;;1.80;;
14611;SDS011;7392;52.078;11.650;2022-10-03T09:00:06;4.77;;;1.70;;
14611;SDS011;7392;52.078;11.650;2022-10-03T09:02:47;5.80;;;1.83;;
14611;SDS011;7392;52.078;11.650;2022-10-03T09:09:17;9.70;;;2.83;;
14611;SDS011;7392;52.078;11.650;2022-10-03T09:15:17;5.67;;;1.90;;
14611;SDS011;7392;52.078;11.650;2022-10-03T09:18:24;8.77;;;1.97;;
14611;SDS011;7392;52.078;11.650;2022-10-03T09:24:21;7.77;;;2.33;;
14611;SDS011;7392;52.078;11.650;2022-10-03T09:30:03;9.33;;;2.23;;
14611;SDS011;7392;52.078;11.650;2022-10-03T09:32:53;6.90;;;2.10;;
14611;SDS011;7392;52.078;11.650;2022-10-03T09:38:50;4.43;;;1.53;;
14611;SDS011;7392;52.078;11.650;2022-10-03T09:44:41;7.30;;;1.83;;
14611;SDS011;7392;52.078;11.650;2022-10-03T09:50:34;4.37;;;1.50;;
14611;SDS011;7392;52.078;11.650;2022-10-03T09:53:36;8.10;;;2.23;;
14611;SDS011;7392;52.078;11.650;2022-10-03T09:59:37;10.70;;;2.50;;
14611;SDS011;7392;52.078;11.650;2022-10-03T10:02:28;9.87;;;1.90;;
14611;SDS011;7392;52.078;11.650;2022-10-03T10:05:21;5.80;;;1.87;;
14611;SDS011;7392;52.078;11.650;2022-10-03T10:11:35;3.57;;;1.50;;
14611;SDS011;7392;52.078;11.650;2022-10-03T10:14:31;8.43;;;1.80;;
14611;SDS011;7392;52.078;11.650;2022-10-03T10:17:38;5.90;;;1.63;;
14611;SDS011;7392;52.078;11.650;2022-10-03T10:20:24;7.37;;;1.90;;
14611;SDS011;7392;52.078;11.650;2022-10-03T10:23:11;7.80;;;2.20;;
14611;SDS011;7392;52.078;11.650;2022-10-03T10:32:24;2.70;;;1.40;;
14611;SDS011;7392;52.078;11.650;2022-10-03T10:38:34;3.87;;;1.50;;
14611;SDS011;7392;52.078;11.650;2022-10-03T10:47:56;4.33;;;1.33;;
14611;SDS011;7392;52.078;11.650;2022-10-03T10:57:28;4.87;;;1.50;;
14611;SDS011;7392;52.078;11.650;2022-10-03T11:00:19;4.57;;;1.40;;
14611;SDS011;7392;52.078;11.650;2022-10-03T11:12:38;6.33;;;1.70;;
14611;SDS011;7392;52.078;11.650;2022-10-03T11:28:32;5.17;;;1.67;;
14611;SDS011;7392;52.078;11.650;2022-10-03T11:32:02;3.10;;;1.30;;
14611;SDS011;7392;52.078;11.650;2022-10-03T11:38:09;4.70;;;1.37;;
14611;SDS011;7392;52.078;11.650;2022-10-03T11:40:46;4.40;;;1.40;;
14611;SDS011;7392;52.078;11.650;2022-10-03T11:46:36;7.67;;;1.80;;
14611;SDS011;7392;52.078;11.650;2022-10-03T11:49:54;5.87;;;1.60;;
14611;SDS011;7392;52.078;11.650;2022-10-03T11:52:41;7.07;;;1.77;;
14611;SDS011;7392;52.078;11.650;2022-10-03T11:55:22;5.47;;;1.70;;
14611;SDS011;7392;52.078;11.650;2022-10-03T11:58:01;5.37;;;1.53;;
14611;SDS011;7392;52.078;11.650;2022-10-03T12:00:40;6.87;;;1.80;;
14611;SDS011;7392;52.078;11.650;2022-10-03T12:03:15;3.67;;;1.20;;
14611;SDS011;7392;52.078;11.650;2022-10-03T12:05:50;4.03;;;1.47;;
14611;SDS011;7392;52.078;11.650;2022-10-03T12:08:47;4.10;;;1.50;;
14611;SDS011;7392;52.078;11.650;2022-10-03T12:11:25;3.50;;;1.40;;
14611;SDS011;7392;52.078;11.650;2022-10-03T12:14:02;6.27;;;1.63;;
14611;SDS011;7392;52.078;11.650;2022-10-03T12:16:51;2.73;;;1.10;;
14611;SDS011;7392;52.078;11.650;2022-10-03T12:19:34;4.27;;;1.53;;
14611;SDS011;7392;52.078;11.650;2022-10-03T12:22:17;4.30;;;1.17;;
14611;SDS011;7392;52.078;11.650;2022-10-03T12:24:54;3.40;;;1.13;;
14611;SDS011;7392;52.078;11.650;2022-10-03T12:27:31;4.87;;;1.50;;
14611;SDS011;7392;52.078;11.650;2022-10-03T12:30:11;6.57;;;1.57;;
14611;SDS011;7392;52.078;11.650;2022-10-03T12:32:44;5.63;;;1.60;;
14611;SDS011;7392;52.078;11.650;2022-10-03T12:35:32;3.70;;;1.10;;
14611;SDS011;7392;52.078;11.650;2022-10-03T12:38:15;3.63;;;1.63;;
14611;SDS011;7392;52.078;11.650;2022-10-03T12:40:55;4.53;;;1.30;;
14611;SDS011;7392;52.078;11.650;2022-10-03T12:43:36;4.27;;;1.23;;
14611;SDS011;7392;52.078;11.650;2022-10-03T12:46:12;2.97;;;1.10;;
14611;SDS011;7392;52.078;11.650;2022-10-03T12:48:45;4.20;;;1.60;;
14611;SDS011;7392;52.078;11.650;2022-10-03T12:51:28;2.77;;;1.30;;
14611;SDS011;7392;52.078;11.650;2022-10-03T12:54:06;4.23;;;1.50;;
14611;SDS011;7392;52.078;11.650;2022-10-03T12:56:44;3.40;;;1.50;;
14611;SDS011;7392;52.078;11.650;2022-10-03T12:59:17;2.83;;;1.33;;
14611;SDS011;7392;52.078;11.650;2022-10-03T13:02:06;6.03;;;1.63;;
14611;SDS011;7392;52.078;11.650;2022-10-03T13:04:52;2.40;;;1.10;;
14611;SDS011;7392;52.078;11.650;2022-10-03T13:07:38;4.17;;;1.33;;
14611;SDS011;7392;52.078;11.650;2022-10-03T13:10:19;2.40;;;1.00;;
14611;SDS011;7392;52.078;11.650;2022-10-03T13:13:00;1.73;;;0.83;;
14611;SDS011;7392;52.078;11.650;2022-10-03T13:15:54;3.83;;;1.40;;
14611;SDS011;7392;52.078;11.650;2022-10-03T13:18:47;3.70;;;1.33;;
14611;SDS011;7392;52.078;11.650;2022-10-03T13:21:20;4.00;;;1.50;;
14611;SDS011;7392;52.078;11.650;2022-10-03T13:24:20;2.07;;;0.80;;
14611;SDS011;7392;52.078;11.650;2022-10-03T13:27:09;2.33;;;1.00;;
14611;SDS011;7392;52.078;11.650;2022-10-03T13:29:48;1.90;;;0.97;;
14611;SDS011;7392;52.078;11.650;2022-10-03T13:32:23;2.87;;;1.00;;
14611;SDS011;7392;52.078;11.650;2022-10-03T13:35:11;1.40;;;0.83;;
14611;SDS011;7392;52.078;11.650;2022-10-03T13:38:08;2.57;;;1.00;;
14611;SDS011;7392;52.078;11.650;2022-10-03T13:41:00;3.43;;;1.10;;
14611;SDS011;7392;52.078;11.650;2022-10-03T13:43:37;4.67;;;1.30;;
14611;SDS011;7392;52.078;11.650;2022-10-03T13:46:11;2.20;;;1.03;;
14611;SDS011;7392;52.078;11.650;2022-10-03T13:48:43;2.80;;;1.00;;
14611;SDS011;7392;52.078;11.650;2022-10-03T13:51:25;2.07;;;1.00;;
14611;SDS011;7392;52.078;11.650;2022-10-03T13:54:00;3.27;;;0.90;;
14611;SDS011;7392;52.078;11.650;2022-10-03T13:56:39;2.33;;;1.00;;
14611;SDS011;7392;52.078;11.650;2022-10-03T13:59:25;2.70;;;1.07;;
14611;SDS011;7392;52.078;11.650;2022-10-03T14:02:05;3.67;;;0.90;;
14611;SDS011;7392;52.078;11.650;2022-10-03T14:04:51;2.47;;;1.40;;
14611;SDS011;7392;52.078;11.650;2022-10-03T14:07:37;2.80;;;1.00;;
14611;SDS011;7392;52.078;11.650;2022-10-03T14:10:22;2.47;;;1.00;;
14611;SDS011;7392;52.078;11.650;2022-10-03T14:13:13;2.57;;;1.17;;
14611;SDS011;7392;52.078;11.650;2022-10-03T14:15:49;3.50;;;1.00;;
14611;SDS011;7392;52.078;11.650;2022-10-03T14:18:24;4.90;;;1.20;;
14611;SDS011;7392;52.078;11.650;2022-10-03T14:21:15;2.17;;;0.87;;
14611;SDS011;7392;52.078;11.650;2022-10-03T14:23:54;3.83;;;1.40;;
14611;SDS011;7392;52.078;11.650;2022-10-03T14:26:30;3.43;;;1.17;;
14611;SDS011;7392;52.078;11.650;2022-10-03T14:29:09;2.80;;;1.00;;
14611;SDS011;7392;52.078;11.650;2022-10-03T14:31:50;2.87;;;1.20;;
14611;SDS011;7392;52.078;11.650;2022-10-03T14:34:30;4.33;;;1.47;;
14611;SDS011;7392;52.078;11.650;2022-10-03T14:37:15;2.20;;;1.07;;
14611;SDS011;7392;52.078;11.650;2022-10-03T14:39:54;3.43;;;1.10;;
14611;SDS011;7392;52.078;11.650;2022-10-03T14:42:47;2.87;;;1.10;;
14611;SDS011;7392;52.078;11.650;2022-10-03T14:45:25;3.33;;;1.00;;
14611;SDS011;7392;52.078;11.650;2022-10-03T14:47:58;3.20;;;1.23;;
14611;SDS011;7392;52.078;11.650;2022-10-03T14:50:32;3.73;;;1.50;;
14611;SDS011;7392;52.078;11.650;2022-10-03T14:53:06;2.63;;;1.17;;
14611;SDS011;7392;52.078;11.650;2022-10-03T14:55:42;4.07;;;1.30;;
14611;SDS011;7392;52.078;11.650;2022-10-03T14:58:15;2.37;;;1.20;;
14611;SDS011;7392;52.078;11.650;2022-10-03T15:00:48;3.20;;;1.03;;
14611;SDS011;7392;52.078;11.650;2022-10-03T15:03:21;2.17;;;0.93;;
14611;SDS011;7392;52.078;11.650;2022-10-03T15:05:57;2.70;;;1.10;;
14611;SDS011;7392;52.078;11.650;2022-10-03T15:08:29;1.63;;;0.90;;
14611;SDS011;7392;52.078;11.650;2022-10-03T15:11:03;1.60;;;0.80;;
14611;SDS011;7392;52.078;11.650;2022-10-03T15:13:33;1.97;;;1.10;;
14611;SDS011;7392;52.078;11.650;2022-10-03T15:16:08;2.77;;;1.10;;
14611;SDS011;7392;52.078;11.650;2022-10-03T15:18:43;2.50;;;1.00;;
14611;SDS011;7392;52.078;11.650;2022-10-03T15:21:19;2.93;;;1.17;;
14611;SDS011;7392;52.078;11.650;2022-10-03T15:23:48;1.73;;;0.90;;
14611;SDS011;7392;52.078;11.650;2022-10-03T15:26:22;0.97;;;0.70;;
14611;SDS011;7392;52.078;11.650;2022-10-03T15:28:54;2.50;;;0.90;;
14611;SDS011;7392;52.078;11.650;2022-10-03T15:31:32;3.30;;;1.00;;
14611;SDS011;7392;52.078;11.650;2022-10-03T15:34:02;2.03;;;0.97;;
14611;SDS011;7392;52.078;11.650;2022-10-03T15:36:33;3.17;;;1.60;;
14611;SDS011;7392;52.078;11.650;2022-10-03T15:39:05;4.70;;;1.80;;
14611;SDS011;7392;52.078;11.650;2022-10-03T15:41:47;3.10;;;1.60;;
14611;SDS011;7392;52.078;11.650;2022-10-03T15:44:20;2.23;;;1.50;;
14611;SDS011;7392;52.078;11.650;2022-10-03T15:46:56;2.20;;;1.27;;
14611;SDS011;7392;52.078;11.650;2022-10-03T15:49:27;2.43;;;1.23;;
14611;SDS011;7392;52.078;11.650;2022-10-03T15:52:04;2.50;;;1.30;;
14611;SDS011;7392;52.078;11.650;2022-10-03T15:54:37;1.83;;;1.17;;
14611;SDS011;7392;52.078;11.650;2022-10-03T15:57:06;1.90;;;1.20;;
14611;SDS011;7392;52.078;11.650;2022-10-03T15:59:43;3.33;;;1.17;;
14611;SDS011;7392;52.078;11.650;2022-10-03T16:02:15;4.87;;;1.30;;
14611;SDS011;7392;52.078;11.650;2022-10-03T16:04:47;5.17;;;1.50;;
14611;SDS011;7392;52.078;11.650;2022-10-03T16:07:23;2.90;;;1.17;;
14611;SDS011;7392;52.078;11.650;2022-10-03T16:10:02;2.73;;;1.13;;
14611;SDS011;7392;52.078;11.650;2022-10-03T16:12:51;4.07;;;1.60;;
14611;SDS011;7392;52.078;11.650;2022-10-03T16:15:30;2.60;;;1.30;;
14611;SDS011;7392;52.078;11.650;2022-10-03T16:18:10;2.93;;;1.40;;
14611;SDS011;7392;52.078;11.650;2022-10-03T16:21:19;2.23;;;1.30;;
14611;SDS011;7392;52.078;11.650;2022-10-03T16:23:56;2.93;;;1.67;;
14611;SDS011;7392;52.078;11.650;2022-10-03T16:26:28;3.43;;;1.83;;
14611;SDS011;7392;52.078;11.650;2022-10-03T16:29:04;2.90;;;1.73;;
14611;SDS011;7392;52.078;11.650;2022-10-03T16:31:40;4.87;;;3.03;;
14611;SDS011;7392;52.078;11.650;2022-10-03T16:34:17;4.23;;;2.70;;
14611;SDS011;7392;52.078;11.650;2022-10-03T16:36:48;5.23;;;2.60;;
14611;SDS011;7392;52.078;11.650;2022-10-03T16:39:18;3.67;;;1.87;;
14611;SDS011;7392;52.078;11.650;2022-10-03T16:41:50;4.33;;;1.70;;
14611;SDS011;7392;52.078;11.650;2022-10-03T16:44:24;3.90;;;1.50;;
14611;SDS011;7392;52.078;11.650;2022-10-03T16:46:59;2.90;;;1.30;;
14611;SDS011;7392;52.078;11.650;2022-10-03T16:49:37;2.87;;;1.30;;
14611;SDS011;7392;52.078;11.650;2022-10-03T16:52:28;3.00;;;1.23;;
14611;SDS011;7392;52.078;11.650;2022-10-03T16:55:00;1.60;;;0.93;;
14611;SDS011;7392;52.078;11.650;2022-10-03T16:57:34;1.90;;;0.80;;
14611;SDS011;7392;52.078;11.650;2022-10-03T17:00:12;2.07;;;1.20;;
14611;SDS011;7392;52.078;11.650;2022-10-03T17:02:44;3.37;;;1.30;;
14611;SDS011;7392;52.078;11.650;2022-10-03T17:05:15;1.83;;;1.30;;
14611;SDS011;7392;52.078;11.650;2022-10-03T17:07:44;2.03;;;1.20;;
14611;SDS011;7392;52.078;11.650;2022-10-03T17:10:19;3.23;;;1.30;;
14611;SDS011;7392;52.078;11.650;2022-10-03T17:12:53;2.00;;;1.10;;
14611;SDS011;7392;52.078;11.650;2022-10-03T17:15:30;3.90;;;1.50;;
14611;SDS011;7392;52.078;11.650;2022-10-03T17:18:05;1.80;;;1.20;;
14611;SDS011;7392;52.078;11.650;2022-10-03T17:20:44;2.60;;;1.33;;
14611;SDS011;7392;52.078;11.650;2022-10-03T17:23:20;2.57;;;1.30;;
14611;SDS011;7392;52.078;11.650;2022-10-03T17:25:57;2.90;;;1.27;;
14611;SDS011;7392;52.078;11.650;2022-10-03T17:28:31;2.20;;;1.07;;
14611;SDS011;7392;52.078;11.650;2022-10-03T17:31:06;1.90;;;1.10;;
14611;SDS011;7392;52.078;11.650;2022-10-03T17:33:49;1.80;;;1.10;;
14611;SDS011;7392;52.078;11.650;2022-10-03T17:39:36;2.03;;;0.90;;
14611;SDS011;7392;52.078;11.650;2022-10-03T17:42:14;2.47;;;1.17;;
14611;SDS011;7392;52.078;11.650;2022-10-03T17:44:55;2.70;;;1.10;;
14611;SDS011;7392;52.078;11.650;2022-10-03T17:47:31;3.00;;;1.03;;
14611;SDS011;7392;52.078;11.650;2022-10-03T17:50:09;1.60;;;0.90;;
14611;SDS011;7392;52.078;11.650;2022-10-03T17:52:43;2.20;;;1.03;;
14611;SDS011;7392;52.078;11.650;2022-10-03T17:55:16;2.57;;;0.97;;
14611;SDS011;7392;52.078;11.650;2022-10-03T17:57:47;2.03;;;0.80;;
14611;SDS011;7392;52.078;11.650;2022-10-03T18:00:19;1.50;;;0.80;;
14611;SDS011;7392;52.078;11.650;2022-10-03T18:02:51;2.23;;;1.23;;
14611;SDS011;7392;52.078;11.650;2022-10-03T18:05:27;3.73;;;1.30;;
14611;SDS011;7392;52.078;11.650;2022-10-03T18:08:01;2.83;;;1.30;;
14611;SDS011;7392;52.078;11.650;2022-10-03T18:10:34;2.90;;;1.37;;
14611;SDS011;7392;52.078;11.650;2022-10-03T18:13:06;1.80;;;1.20;;
14611;SDS011;7392;52.078;11.650;2022-10-03T18:15:46;4.50;;;1.87;;
14611;SDS011;7392;52.078;11.650;2022-10-03T18:18:51;2.80;;;2.13;;
14611;SDS011;7392;52.078;11.650;2022-10-03T18:21:32;3.70;;;1.80;;
14611;SDS011;7392;52.078;11.650;2022-10-03T18:27:22;2.03;;;1.43;;
14611;SDS011;7392;52.078;11.650;2022-10-03T18:30:12;3.03;;;1.40;;
14611;SDS011;7392;52.078;11.650;2022-10-03T18:32:43;2.17;;;1.20;;
14611;SDS011;7392;52.078;11.650;2022-10-03T18:35:12;1.67;;;1.00;;
14611;SDS011;7392;52.078;11.650;2022-10-03T18:37:52;1.37;;;0.90;;
14611;SDS011;7392;52.078;11.650;2022-10-03T18:40:27;2.30;;;1.10;;
14611;SDS011;7392;52.078;11.650;2022-10-03T18:42:58;1.53;;;0.90;;
14611;SDS011;7392;52.078;11.650;2022-10-03T18:45:28;0.80;;;0.60;;
14611;SDS011;7392;52.078;11.650;2022-10-03T18:47:59;2.53;;;1.00;;
14611;SDS011;7392;52.078;11.650;2022-10-03T18:50:38;0.90;;;0.73;;
14611;SDS011;7392;52.078;11.650;2022-10-03T18:53:18;1.53;;;0.67;;
14611;SDS011;7392;52.078;11.650;2022-10-03T18:55:54;0.70;;;0.50;;
14611;SDS011;7392;52.078;11.650;2022-10-03T18:58:28;1.40;;;0.83;;
14611;SDS011;7392;52.078;11.650;2022-10-03T19:01:00;2.03;;;1.20;;
14611;SDS011;7392;52.078;11.650;2022-10-03T19:03:33;3.20;;;1.20;;
14611;SDS011;7392;52.078;11.650;2022-10-03T19:06:04;1.30;;;1.00;;
14611;SDS011;7392;52.078;11.650;2022-10-03T19:08:46;2.33;;;0.90;;
14611;SDS011;7392;52.078;11.650;2022-10-03T19:11:18;4.57;;;1.67;;
14611;SDS011;7392;52.078;11.650;2022-10-03T19:13:57;2.63;;;1.27;;
14611;SDS011;7392;52.078;11.650;2022-10-03T19:16:34;1.93;;;1.20;;
14611;SDS011;7392;52.078;11.650;2022-10-03T19:19:11;3.67;;;1.40;;
14611;SDS011;7392;52.078;11.650;2022-10-03T19:21:51;3.70;;;1.10;;